Buxton, North Carolina
Current Conditions -  °F | °C
As of 5:51 AM on Saturday 20 Dec 2014 (Local Time) from KHSE Reporting Station
Clear Clear  
Wind Chill: 42°   Ceiling: Unl
Heat Index: 42°   Visibility: 10mi
Dew Point: 34°   Wind: 3mph
Humidity: 73%   Direction: 50°NE
Pressure: 30.23"   Gusts: NA
Location:  35.27°N, 75.54°W
Report Text: KHSE 201051Z AUTO 05003KT 10SM CLR 06/01 A3023 RMK AO2 SLP237 T00560011 TSNO
Loading
Personal Weather Stations






























Interactive Weather Map New forecast layout! Learn more

10-Day Weather Forecast

Advertisements
Track Severe Weather on mobile